createdAt,value
2018-04-30T00:00:44.647Z,63.45
2018-04-30T00:03:13.071Z,63.59
2018-04-30T00:05:41.516Z,63.64
2018-04-30T00:08:10.041Z,63.67
2018-04-30T00:10:38.466Z,63.62
2018-04-30T00:13:06.900Z,63.73
2018-04-30T00:15:35.537Z,63.48
2018-04-30T00:18:04.013Z,63.79
2018-04-30T00:20:32.461Z,63.67
2018-04-30T00:23:00.915Z,63.61
2018-04-30T00:25:29.336Z,63.60
2018-04-30T00:27:57.745Z,63.47
2018-04-30T00:30:26.238Z,63.84
2018-04-30T00:32:54.662Z,63.56
2018-04-30T00:35:23.093Z,63.60
2018-04-30T00:37:51.562Z,63.52
2018-04-30T00:40:19.984Z,63.59
2018-04-30T00:42:48.418Z,63.74
2018-04-30T00:45:16.869Z,63.63
2018-04-30T00:47:45.370Z,63.94
2018-04-30T00:50:13.742Z,63.96
2018-04-30T00:52:42.202Z,64.10
2018-04-30T00:55:10.616Z,64.22
2018-04-30T00:57:39.056Z,64.43
2018-04-30T01:00:07.654Z,64.56
2018-04-30T01:02:36.061Z,64.83
2018-04-30T01:05:04.512Z,64.62
2018-04-30T01:07:32.984Z,64.69
2018-04-30T01:10:01.440Z,64.86
2018-04-30T01:12:29.867Z,64.81
2018-04-30T01:14:58.341Z,64.99
2018-04-30T01:17:26.774Z,65.01
2018-04-30T01:19:55.231Z,65.05
2018-04-30T01:22:23.723Z,65.20
2018-04-30T01:24:52.149Z,65.22
2018-04-30T01:27:20.569Z,65.23
2018-04-30T01:29:49.036Z,65.34
2018-04-30T01:32:17.449Z,65.43
2018-04-30T01:34:45.871Z,65.48
2018-04-30T01:37:14.377Z,65.78
2018-04-30T01:39:42.792Z,65.92
2018-04-30T01:42:11.197Z,66.18
2018-04-30T01:44:39.706Z,66.33
2018-04-30T01:47:08.128Z,66.77
2018-04-30T01:49:41.569Z,67.13
2018-04-30T01:52:10.020Z,67.13
2018-04-30T01:54:38.471Z,67.19
2018-04-30T01:57:06.948Z,67.31
2018-04-30T01:59:35.372Z,67.64
2018-04-30T02:02:03.812Z,67.98
2018-04-30T02:04:32.434Z,68.08
2018-04-30T02:07:00.877Z,68.09
2018-04-30T02:09:29.346Z,67.98
2018-04-30T02:11:58.069Z,68.04
2018-04-30T02:14:26.530Z,68.02
2018-04-30T02:16:55.004Z,67.88
2018-04-30T02:19:23.522Z,67.81
2018-04-30T02:21:51.960Z,67.79
2018-04-30T02:24:20.433Z,67.71
2018-04-30T02:26:48.951Z,67.78
2018-04-30T02:29:17.413Z,67.67
2018-04-30T02:31:45.862Z,67.67
2018-04-30T02:34:14.433Z,67.61
2018-04-30T02:36:42.892Z,67.65
2018-04-30T02:39:11.324Z,67.78
2018-04-30T02:41:39.833Z,67.85
2018-04-30T02:44:08.268Z,67.91
2018-04-30T02:46:36.724Z,68.03
2018-04-30T02:49:05.519Z,68.19
2018-04-30T02:51:33.997Z,68.33
2018-04-30T02:54:02.489Z,68.49
2018-04-30T02:56:30.989Z,68.63
2018-04-30T02:58:59.430Z,68.64
2018-04-30T03:01:28.099Z,68.70
2018-04-30T03:03:56.548Z,68.66
2018-04-30T03:06:24.969Z,68.89
2018-04-30T03:08:53.429Z,69.27
2018-04-30T03:11:21.909Z,69.44
2018-04-30T03:13:50.341Z,69.38
2018-04-30T03:16:18.792Z,69.54
2018-04-30T03:18:47.270Z,69.55
2018-04-30T03:21:15.698Z,69.49
2018-04-30T03:23:44.135Z,69.52
2018-04-30T03:26:12.618Z,69.71
2018-04-30T03:28:41.038Z,69.83
2018-04-30T03:31:09.498Z,69.64
2018-04-30T03:33:37.985Z,69.80
2018-04-30T03:36:06.428Z,69.96
2018-04-30T03:38:34.862Z,70.14
2018-04-30T03:41:03.345Z,70.30
2018-04-30T03:43:31.776Z,70.52
2018-04-30T03:46:00.204Z,70.81
2018-04-30T03:48:28.671Z,70.94
2018-04-30T03:50:57.096Z,71.15
2018-04-30T03:53:25.540Z,71.26
2018-04-30T03:55:54.036Z,71.40
2018-04-30T03:58:22.464Z,71.60
2018-04-30T04:01:02.605Z,71.60
2018-04-30T04:03:42.892Z,71.59
2018-04-30T04:09:11.182Z,71.82
2018-04-30T04:11:39.666Z,72.15
2018-04-30T04:14:08.089Z,72.81
2018-04-30T04:16:36.508Z,72.94
2018-04-30T04:19:05.016Z,73.26
2018-04-30T04:21:33.449Z,73.23
2018-04-30T04:24:01.912Z,73.11
2018-04-30T04:26:30.393Z,72.98
2018-04-30T04:28:58.813Z,73.04
2018-04-30T04:31:27.265Z,73.00
2018-04-30T04:33:55.748Z,72.90
2018-04-30T04:36:24.184Z,72.88
2018-04-30T04:38:52.617Z,72.77
2018-04-30T04:41:21.090Z,72.86
2018-04-30T04:43:49.701Z,73.04
2018-04-30T04:46:18.128Z,72.84
2018-04-30T04:48:46.609Z,73.19
2018-04-30T04:51:15.053Z,73.36
2018-04-30T04:53:43.480Z,73.59
2018-04-30T04:56:12.009Z,73.55
2018-04-30T04:58:40.437Z,73.51
2018-04-30T05:01:08.863Z,73.49
2018-04-30T05:03:37.343Z,73.57
2018-04-30T05:06:05.825Z,73.78
2018-04-30T05:08:34.240Z,73.52
2018-04-30T05:11:02.705Z,73.53
2018-04-30T05:13:31.135Z,73.82
2018-04-30T05:15:59.572Z,73.62
2018-04-30T05:18:28.060Z,73.60
2018-04-30T05:20:56.520Z,73.90
2018-04-30T05:23:24.980Z,73.93
2018-04-30T05:25:53.441Z,73.57
2018-04-30T05:28:21.867Z,73.31
2018-04-30T05:30:50.285Z,73.29
2018-04-30T05:33:18.971Z,73.47
2018-04-30T05:35:47.404Z,73.61
2018-04-30T05:38:15.829Z,73.46
2018-04-30T05:40:44.288Z,72.74
2018-04-30T05:43:12.715Z,73.02
2018-04-30T05:45:41.144Z,71.93
2018-04-30T05:48:09.649Z,72.07
2018-04-30T05:50:38.072Z,71.86
2018-04-30T05:53:06.524Z,71.26
2018-04-30T05:55:35.000Z,70.75
2018-04-30T05:58:03.458Z,70.85
2018-04-30T06:00:31.961Z,70.79
2018-04-30T06:03:00.412Z,70.81
2018-04-30T06:05:28.841Z,71.17
2018-04-30T06:07:57.280Z,71.51
2018-04-30T06:10:25.735Z,71.95
2018-04-30T06:12:54.164Z,71.85
2018-04-30T06:15:22.601Z,71.14
2018-04-30T06:17:51.084Z,71.29
2018-04-30T06:20:19.564Z,71.30
2018-04-30T06:22:48.031Z,71.04
2018-04-30T06:25:16.508Z,71.86
2018-04-30T06:27:44.927Z,71.59
2018-04-30T06:30:13.357Z,70.95
2018-04-30T06:32:41.832Z,72.07
2018-04-30T06:35:10.256Z,71.73
2018-04-30T06:37:38.672Z,71.45
2018-04-30T06:40:07.149Z,71.80
2018-04-30T06:42:35.571Z,71.83
2018-04-30T06:45:04.028Z,71.73
2018-04-30T06:47:32.508Z,71.45
2018-04-30T06:50:00.940Z,72.02
2018-04-30T06:52:29.364Z,72.52
2018-04-30T06:54:57.835Z,72.76
2018-04-30T06:57:26.258Z,71.03
2018-04-30T06:59:54.676Z,70.87
2018-04-30T07:02:23.144Z,71.61
2018-04-30T07:04:51.574Z,72.03
2018-04-30T07:07:20.000Z,70.69
2018-04-30T07:09:48.468Z,71.93
2018-04-30T07:12:16.881Z,71.14
2018-04-30T07:14:45.292Z,70.45
2018-04-30T07:17:13.745Z,70.24
2018-04-30T07:19:42.177Z,70.54
2018-04-30T07:22:10.604Z,71.50
2018-04-30T07:24:39.068Z,70.51
2018-04-30T07:27:07.499Z,69.21
2018-04-30T07:29:35.922Z,68.34
2018-04-30T07:32:04.395Z,68.81
2018-04-30T07:34:32.838Z,67.71
2018-04-30T07:37:01.254Z,68.18
2018-04-30T07:39:29.709Z,68.13
2018-04-30T07:41:58.137Z,69.13
2018-04-30T07:44:26.545Z,68.26
2018-04-30T07:46:55.027Z,69.26
2018-04-30T07:49:23.441Z,69.31
2018-04-30T07:51:51.860Z,69.19
2018-04-30T07:54:20.704Z,68.38
2018-04-30T07:56:49.111Z,68.16
2018-04-30T07:59:17.512Z,67.62
2018-04-30T08:01:45.962Z,67.64
2018-04-30T08:04:14.429Z,65.87
2018-04-30T08:06:42.842Z,67.01
2018-04-30T08:09:11.534Z,66.77
2018-04-30T08:11:39.949Z,66.08
2018-04-30T08:14:08.396Z,65.78
2018-04-30T08:16:36.852Z,65.60
2018-04-30T08:19:05.328Z,65.42
2018-04-30T08:21:33.798Z,65.17
2018-04-30T08:24:02.250Z,65.47
2018-04-30T08:26:30.742Z,65.14
2018-04-30T08:28:59.152Z,65.44
2018-04-30T08:31:27.600Z,66.16
2018-04-30T08:33:56.014Z,65.19
2018-04-30T08:36:24.425Z,65.73
2018-04-30T08:38:52.881Z,65.47
2018-04-30T08:41:21.296Z,64.96
2018-04-30T08:43:49.699Z,65.07
2018-04-30T08:46:18.162Z,64.34
2018-04-30T08:48:46.563Z,64.26
2018-04-30T08:51:14.980Z,64.40
2018-04-30T08:53:43.439Z,64.56
2018-04-30T08:56:11.888Z,64.77
2018-04-30T08:58:40.308Z,64.87
2018-04-30T09:01:08.790Z,64.14
2018-04-30T09:03:37.197Z,64.39
2018-04-30T09:06:05.644Z,64.23
2018-04-30T09:08:34.099Z,62.99
2018-04-30T09:11:02.536Z,63.14
2018-04-30T09:13:30.953Z,62.46
2018-04-30T09:15:59.408Z,63.16
2018-04-30T09:18:28.038Z,62.94
2018-04-30T09:20:56.454Z,61.52
2018-04-30T09:23:24.913Z,61.54
2018-04-30T09:25:53.344Z,61.78
2018-04-30T09:28:21.760Z,63.63
2018-04-30T09:30:50.230Z,62.35
2018-04-30T09:33:18.645Z,62.17
2018-04-30T09:35:47.073Z,61.88
2018-04-30T09:38:15.520Z,61.85
2018-04-30T09:40:43.937Z,63.23
2018-04-30T09:43:12.344Z,63.00
2018-04-30T09:45:40.820Z,63.79
2018-04-30T09:48:09.231Z,63.27
2018-04-30T09:50:37.680Z,63.13
2018-04-30T09:53:06.140Z,63.67
2018-04-30T09:55:34.579Z,63.52
2018-04-30T09:58:02.993Z,63.17
2018-04-30T10:00:31.441Z,63.71
2018-04-30T10:02:59.860Z,63.77
2018-04-30T10:05:28.276Z,62.21
2018-04-30T10:07:56.728Z,62.64
2018-04-30T10:10:25.140Z,62.18
2018-04-30T10:12:53.571Z,62.29
2018-04-30T10:15:22.056Z,62.06
2018-04-30T10:17:50.572Z,61.25
2018-04-30T10:20:18.960Z,61.48
2018-04-30T10:22:47.412Z,62.30
2018-04-30T10:25:15.820Z,62.55
2018-04-30T10:27:44.241Z,62.96
2018-04-30T10:30:12.700Z,63.17
2018-04-30T10:32:41.134Z,60.91
2018-04-30T10:35:09.543Z,60.58
2018-04-30T10:37:37.993Z,61.33
2018-04-30T10:40:06.409Z,61.15
2018-04-30T10:42:34.830Z,60.05
2018-04-30T10:45:03.295Z,58.23
2018-04-30T10:47:31.699Z,59.27
2018-04-30T10:50:00.135Z,59.49
2018-04-30T10:52:28.610Z,58.55
2018-04-30T10:54:57.028Z,59.85
2018-04-30T10:57:25.432Z,60.61
2018-04-30T10:59:53.916Z,59.84
2018-04-30T11:02:22.330Z,59.91
2018-04-30T11:04:50.740Z,59.77
2018-04-30T11:07:19.196Z,59.04
2018-04-30T11:09:47.612Z,59.62
2018-04-30T11:12:16.034Z,60.53
2018-04-30T11:14:44.486Z,60.40
2018-04-30T11:17:12.902Z,60.12
2018-04-30T11:19:41.315Z,58.14
2018-04-30T11:22:09.772Z,57.60
2018-04-30T11:24:38.184Z,57.51
2018-04-30T11:27:06.595Z,57.13
2018-04-30T11:29:35.058Z,57.04
2018-04-30T11:32:03.464Z,57.60
2018-04-30T11:34:31.873Z,56.71
2018-04-30T11:37:00.340Z,57.87
2018-04-30T11:39:28.812Z,58.84
2018-04-30T11:41:57.239Z,58.61
2018-04-30T11:44:25.729Z,57.36
2018-04-30T11:46:54.161Z,56.86
2018-04-30T11:49:22.597Z,57.96
2018-04-30T11:51:51.100Z,58.40
2018-04-30T11:54:19.548Z,57.98
2018-04-30T11:56:47.997Z,57.44
2018-04-30T11:59:16.465Z,58.13
2018-04-30T12:01:44.884Z,59.14
2018-04-30T12:04:13.302Z,56.87
2018-04-30T12:06:41.787Z,58.16
2018-04-30T12:09:10.564Z,56.72
2018-04-30T12:11:38.984Z,58.74
2018-04-30T12:14:07.448Z,58.33
2018-04-30T12:16:35.912Z,58.87
2018-04-30T12:19:04.338Z,58.65
2018-04-30T12:21:32.833Z,56.90
2018-04-30T12:24:01.293Z,57.51
2018-04-30T12:26:29.768Z,57.25
2018-04-30T12:28:58.259Z,57.56
2018-04-30T12:31:26.696Z,56.81
2018-04-30T12:33:55.140Z,56.31
2018-04-30T12:36:23.601Z,57.03
2018-04-30T12:38:52.024Z,56.79
2018-04-30T12:41:20.451Z,55.83
2018-04-30T12:43:48.927Z,56.48
2018-04-30T12:46:17.356Z,55.84
2018-04-30T12:48:45.782Z,56.82
2018-04-30T12:51:14.253Z,53.69
2018-04-30T12:53:42.668Z,55.52
2018-04-30T12:56:11.083Z,54.39
2018-04-30T12:58:39.563Z,54.44
2018-04-30T13:01:07.984Z,53.62
2018-04-30T13:03:36.404Z,54.08
2018-04-30T13:06:04.873Z,55.13
2018-04-30T13:08:33.292Z,54.53
2018-04-30T13:11:01.717Z,53.20
2018-04-30T13:13:30.376Z,55.03
2018-04-30T13:15:58.832Z,52.58
2018-04-30T13:18:27.247Z,53.66
2018-04-30T13:20:55.691Z,52.12
2018-04-30T13:23:24.105Z,51.03
2018-04-30T13:25:52.524Z,52.38
2018-04-30T13:28:20.992Z,52.54
2018-04-30T13:30:49.394Z,50.93
2018-04-30T13:33:17.808Z,52.82
2018-04-30T13:35:46.298Z,50.73
2018-04-30T13:38:14.700Z,50.86
2018-04-30T13:40:43.112Z,50.08
2018-04-30T13:43:11.577Z,52.26
2018-04-30T13:45:40.002Z,51.68
2018-04-30T13:48:08.412Z,48.91
2018-04-30T13:50:36.865Z,49.27
2018-04-30T13:53:05.268Z,49.35
2018-04-30T13:55:33.672Z,50.13
2018-04-30T13:58:02.116Z,52.06
2018-04-30T14:00:30.520Z,49.98
2018-04-30T14:02:58.932Z,49.72
2018-04-30T14:05:27.385Z,49.84
2018-04-30T14:07:55.800Z,51.60
2018-04-30T14:10:24.211Z,49.59
2018-04-30T14:12:52.668Z,50.34
2018-04-30T14:15:21.070Z,49.90
2018-04-30T14:17:49.480Z,49.82
2018-04-30T14:20:17.933Z,47.43
2018-04-30T14:22:46.336Z,49.01
2018-04-30T14:25:14.758Z,49.00
2018-04-30T14:27:43.232Z,48.58
2018-04-30T14:30:11.652Z,50.09
2018-04-30T14:32:40.052Z,47.62
2018-04-30T14:35:08.561Z,49.21
2018-04-30T14:37:36.968Z,49.20
2018-04-30T14:40:05.380Z,49.48
2018-04-30T14:42:33.835Z,47.53
2018-04-30T14:45:02.248Z,50.48
2018-04-30T14:47:30.656Z,50.04
2018-04-30T14:49:59.091Z,49.79
2018-04-30T14:52:27.496Z,49.32
2018-04-30T14:54:55.904Z,48.94
2018-04-30T14:57:24.351Z,50.11
2018-04-30T14:59:52.760Z,47.14
2018-04-30T15:02:21.174Z,48.29
2018-04-30T15:04:49.627Z,47.43
2018-04-30T15:07:18.040Z,48.03
2018-04-30T15:09:46.449Z,48.83
2018-04-30T15:12:14.932Z,48.27
2018-04-30T15:14:43.344Z,48.01
2018-04-30T15:17:11.744Z,48.22
2018-04-30T15:19:40.188Z,45.60
2018-04-30T15:22:08.605Z,47.81
2018-04-30T15:24:37.016Z,46.67
2018-04-30T15:27:05.492Z,47.28
2018-04-30T15:29:33.906Z,46.58
2018-04-30T15:32:02.315Z,46.10
2018-04-30T15:34:30.756Z,44.91
2018-04-30T15:36:59.168Z,46.32
2018-04-30T15:39:27.572Z,45.90
2018-04-30T15:41:56.020Z,44.54
2018-04-30T15:44:24.453Z,43.42
2018-04-30T15:46:52.872Z,44.92
2018-04-30T15:49:21.329Z,43.54
2018-04-30T15:51:49.737Z,43.19
2018-04-30T15:54:18.147Z,43.30
2018-04-30T15:56:46.589Z,43.66
2018-04-30T15:59:15.000Z,43.46
2018-04-30T16:01:43.416Z,43.73
2018-04-30T16:04:11.881Z,44.28
2018-04-30T16:06:40.288Z,44.67
2018-04-30T16:09:08.693Z,44.71
2018-04-30T16:11:37.136Z,43.61
2018-04-30T16:14:05.651Z,44.52
2018-04-30T16:16:33.984Z,44.52
2018-04-30T16:19:02.444Z,44.85
2018-04-30T16:21:30.848Z,43.47
2018-04-30T16:23:59.284Z,43.11
2018-04-30T16:26:27.740Z,45.23
2018-04-30T16:28:56.166Z,42.06
2018-04-30T16:31:24.575Z,42.50
2018-04-30T16:33:53.068Z,43.14
2018-04-30T16:36:21.505Z,42.68
2018-04-30T16:38:49.910Z,43.67
2018-04-30T16:41:18.356Z,43.03
2018-04-30T16:43:46.768Z,43.04
2018-04-30T16:46:15.173Z,43.12
2018-04-30T16:48:43.623Z,43.18
2018-04-30T16:51:12.056Z,42.74
2018-04-30T16:53:40.488Z,42.63
2018-04-30T16:56:08.973Z,43.33
2018-04-30T16:58:37.417Z,41.59
2018-04-30T17:01:05.820Z,41.90
2018-04-30T17:03:34.303Z,44.14
2018-04-30T17:06:02.717Z,44.82
2018-04-30T17:08:31.132Z,43.95
2018-04-30T17:10:59.593Z,40.89
2018-04-30T17:13:27.999Z,40.97
2018-04-30T17:15:56.412Z,41.13
2018-04-30T17:18:24.857Z,42.82
2018-04-30T17:20:53.260Z,41.92
2018-04-30T17:23:21.663Z,40.99
2018-04-30T17:25:50.124Z,42.87
2018-04-30T17:28:18.561Z,42.53
2018-04-30T17:30:47.033Z,42.19
2018-04-30T17:33:15.484Z,42.66
2018-04-30T17:35:43.911Z,43.31
2018-04-30T17:38:12.323Z,42.91
2018-04-30T17:40:40.782Z,41.97
2018-04-30T17:43:09.188Z,43.93
2018-04-30T17:45:37.589Z,42.88
2018-04-30T17:48:06.036Z,44.40
2018-04-30T17:50:34.448Z,43.29
2018-04-30T17:53:02.857Z,43.66
2018-04-30T17:55:31.309Z,44.74
2018-04-30T17:57:59.732Z,44.58
2018-04-30T18:00:28.156Z,44.08
2018-04-30T18:02:56.634Z,44.34
2018-04-30T18:05:25.049Z,43.98
2018-04-30T18:07:53.465Z,44.47
2018-04-30T18:10:21.925Z,44.51
2018-04-30T18:12:50.328Z,45.20
2018-04-30T18:15:18.737Z,45.72
2018-04-30T18:17:47.200Z,45.62
2018-04-30T18:20:15.617Z,44.68
2018-04-30T18:22:44.026Z,44.93
2018-04-30T18:25:12.507Z,44.72
2018-04-30T18:27:40.925Z,44.33
2018-04-30T18:30:09.333Z,43.28
2018-04-30T18:32:37.781Z,44.08
2018-04-30T18:35:06.216Z,46.12
2018-04-30T18:37:34.619Z,44.13
2018-04-30T18:40:03.089Z,43.84
2018-04-30T18:42:31.951Z,45.72
2018-04-30T18:45:00.355Z,44.66
2018-04-30T18:47:28.804Z,46.06
2018-04-30T18:49:57.236Z,45.52
2018-04-30T18:52:25.732Z,46.18
2018-04-30T18:54:54.128Z,45.53
2018-04-30T18:57:22.557Z,46.76
2018-04-30T18:59:50.960Z,46.21
2018-04-30T19:02:19.412Z,47.00
2018-04-30T19:04:47.824Z,48.64
2018-04-30T19:07:16.228Z,47.41
2018-04-30T19:09:44.676Z,48.26
2018-04-30T19:12:13.100Z,48.15
2018-04-30T19:14:41.516Z,48.58
2018-04-30T19:17:09.960Z,47.74
2018-04-30T19:19:38.360Z,48.86
2018-04-30T19:22:06.780Z,49.47
2018-04-30T19:24:35.239Z,49.62
2018-04-30T19:27:03.708Z,49.93
2018-04-30T19:29:32.096Z,51.44
2018-04-30T19:32:00.544Z,50.67
2018-04-30T19:34:28.949Z,50.94
2018-04-30T19:36:57.364Z,50.44
2018-04-30T19:39:25.816Z,51.59
2018-04-30T19:41:54.224Z,51.04
2018-04-30T19:44:22.637Z,51.47
2018-04-30T19:46:51.144Z,51.89
2018-04-30T19:49:19.554Z,52.53
2018-04-30T19:51:47.962Z,51.95
2018-04-30T19:54:16.410Z,51.94
2018-04-30T19:56:44.816Z,52.32
2018-04-30T19:59:13.224Z,51.87
2018-04-30T20:01:41.673Z,51.70
2018-04-30T20:04:10.076Z,51.39
2018-04-30T20:06:38.481Z,51.62
2018-04-30T20:09:06.932Z,51.22
2018-04-30T20:11:35.347Z,51.59
2018-04-30T20:14:03.784Z,51.30
2018-04-30T20:16:32.232Z,52.78
2018-04-30T20:19:00.649Z,52.00
2018-04-30T20:21:29.076Z,52.53
2018-04-30T20:23:57.544Z,52.55
2018-04-30T20:26:25.963Z,52.19
2018-04-30T20:28:54.380Z,52.27
2018-04-30T20:31:22.840Z,52.17
2018-04-30T20:33:51.252Z,52.76
2018-04-30T20:36:19.667Z,52.68
2018-04-30T20:38:48.116Z,52.46
2018-04-30T20:41:16.529Z,52.24
2018-04-30T20:43:44.944Z,52.72
2018-04-30T20:46:13.392Z,53.33
2018-04-30T20:48:41.800Z,53.01
2018-04-30T20:51:10.200Z,53.21
2018-04-30T20:53:38.656Z,53.46
2018-04-30T20:56:07.077Z,53.17
2018-04-30T20:58:35.480Z,53.40
2018-04-30T21:01:03.947Z,54.29
2018-04-30T21:03:32.356Z,54.26
2018-04-30T21:06:00.768Z,53.92
2018-04-30T21:08:29.260Z,53.80
2018-04-30T21:10:57.666Z,54.37
2018-04-30T21:13:26.081Z,55.02
2018-04-30T21:15:54.552Z,54.72
2018-04-30T21:18:22.965Z,54.80
2018-04-30T21:20:51.377Z,54.68
2018-04-30T21:23:19.841Z,55.06
2018-04-30T21:25:48.241Z,55.53
2018-04-30T21:28:16.645Z,55.12
2018-04-30T21:30:45.085Z,55.70
2018-04-30T21:33:13.489Z,55.22
2018-04-30T21:35:41.896Z,55.04
2018-04-30T21:38:10.344Z,55.09
2018-04-30T21:40:38.752Z,55.84
2018-04-30T21:43:07.158Z,55.89
2018-04-30T21:45:35.607Z,55.53
2018-04-30T21:48:04.012Z,55.95
2018-04-30T21:50:32.413Z,56.06
2018-04-30T21:53:00.876Z,55.68
2018-04-30T21:55:29.278Z,55.46
2018-04-30T21:57:57.672Z,55.02
2018-04-30T22:00:27.999Z,54.18
2018-04-30T22:02:56.454Z,54.54
2018-04-30T22:05:24.868Z,54.22
2018-04-30T22:07:53.332Z,53.05
2018-04-30T22:10:21.733Z,53.29
2018-04-30T22:12:50.171Z,53.76
2018-04-30T22:15:18.624Z,53.99
2018-04-30T22:17:47.020Z,54.06
2018-04-30T22:20:15.440Z,54.16
2018-04-30T22:22:43.880Z,54.17
2018-04-30T22:25:12.301Z,53.58
2018-04-30T22:27:40.703Z,54.04
2018-04-30T22:30:09.154Z,53.93
2018-04-30T22:32:37.563Z,53.30
2018-04-30T22:35:05.971Z,54.14
2018-04-30T22:37:34.421Z,54.15
2018-04-30T22:40:02.857Z,53.81
2018-04-30T22:42:31.259Z,53.95
2018-04-30T22:44:59.723Z,54.51
2018-04-30T22:47:28.129Z,53.12
2018-04-30T22:49:56.564Z,53.25
2018-04-30T22:52:25.010Z,53.95
2018-04-30T22:54:53.421Z,53.68
2018-04-30T22:57:21.824Z,53.75
2018-04-30T22:59:50.272Z,54.14
2018-04-30T23:02:18.685Z,54.19
2018-04-30T23:04:47.093Z,54.52
2018-04-30T23:07:15.557Z,54.56
2018-04-30T23:09:43.968Z,55.05
2018-04-30T23:12:12.376Z,55.04
2018-04-30T23:14:40.820Z,55.21
2018-04-30T23:17:09.224Z,54.94
2018-04-30T23:19:37.637Z,55.12
2018-04-30T23:22:06.127Z,55.47
2018-04-30T23:24:34.632Z,54.90
2018-04-30T23:27:03.066Z,54.64
2018-04-30T23:29:31.536Z,54.66
2018-04-30T23:31:59.940Z,54.20
2018-04-30T23:34:28.381Z,54.95
2018-04-30T23:36:56.878Z,54.62
2018-04-30T23:39:25.288Z,54.28
2018-04-30T23:41:53.688Z,54.65
2018-04-30T23:44:22.135Z,54.50
2018-04-30T23:46:50.542Z,54.77
2018-04-30T23:49:18.956Z,54.53
2018-04-30T23:51:47.410Z,55.00
2018-04-30T23:54:15.824Z,54.67
2018-04-30T23:56:44.234Z,54.80
2018-04-30T23:59:12.736Z,54.69
